sensor_id;sensor_type;location;lat;lon;timestamp;P1;durP1;ratioP1;P2;durP2;ratioP2
12816;SDS011;6473;51.552;6.716;2023-05-17T00:01:05;7.45;;;3.78;;
12816;SDS011;6473;51.552;6.716;2023-05-17T00:03:32;7.53;;;3.60;;
12816;SDS011;6473;51.552;6.716;2023-05-17T00:05:58;7.78;;;4.03;;
12816;SDS011;6473;51.552;6.716;2023-05-17T00:08:25;7.10;;;4.00;;
12816;SDS011;6473;51.552;6.716;2023-05-17T00:10:52;5.97;;;3.65;;
12816;SDS011;6473;51.552;6.716;2023-05-17T00:13:19;9.00;;;4.50;;
12816;SDS011;6473;51.552;6.716;2023-05-17T00:15:46;5.25;;;3.83;;
12816;SDS011;6473;51.552;6.716;2023-05-17T00:18:14;8.73;;;4.03;;
12816;SDS011;6473;51.552;6.716;2023-05-17T00:20:41;7.03;;;3.80;;
12816;SDS011;6473;51.552;6.716;2023-05-17T00:23:08;8.82;;;4.43;;
12816;SDS011;6473;51.552;6.716;2023-05-17T00:25:35;6.68;;;3.92;;
12816;SDS011;6473;51.552;6.716;2023-05-17T00:28:02;7.78;;;4.03;;
12816;SDS011;6473;51.552;6.716;2023-05-17T00:30:29;6.65;;;4.10;;
12816;SDS011;6473;51.552;6.716;2023-05-17T00:32:56;8.90;;;4.70;;
12816;SDS011;6473;51.552;6.716;2023-05-17T00:35:24;8.80;;;3.90;;
12816;SDS011;6473;51.552;6.716;2023-05-17T00:37:51;5.65;;;4.18;;
12816;SDS011;6473;51.552;6.716;2023-05-17T00:40:18;5.90;;;4.15;;
12816;SDS011;6473;51.552;6.716;2023-05-17T00:42:45;7.43;;;4.07;;
12816;SDS011;6473;51.552;6.716;2023-05-17T00:45:13;6.07;;;4.10;;
12816;SDS011;6473;51.552;6.716;2023-05-17T00:47:40;8.60;;;4.30;;
12816;SDS011;6473;51.552;6.716;2023-05-17T00:50:07;7.15;;;4.43;;
12816;SDS011;6473;51.552;6.716;2023-05-17T00:52:37;6.72;;;4.78;;
12816;SDS011;6473;51.552;6.716;2023-05-17T00:55:04;8.68;;;4.63;;
12816;SDS011;6473;51.552;6.716;2023-05-17T00:57:31;9.25;;;4.57;;
12816;SDS011;6473;51.552;6.716;2023-05-17T00:59:59;7.57;;;4.30;;
12816;SDS011;6473;51.552;6.716;2023-05-17T01:02:27;11.52;;;4.95;;
12816;SDS011;6473;51.552;6.716;2023-05-17T01:04:53;8.27;;;4.63;;
12816;SDS011;6473;51.552;6.716;2023-05-17T01:07:20;7.43;;;4.70;;
12816;SDS011;6473;51.552;6.716;2023-05-17T01:09:52;7.70;;;4.88;;
12816;SDS011;6473;51.552;6.716;2023-05-17T01:12:23;9.25;;;4.95;;
12816;SDS011;6473;51.552;6.716;2023-05-17T01:15:06;8.48;;;4.47;;
12816;SDS011;6473;51.552;6.716;2023-05-17T01:17:40;8.05;;;4.93;;
12816;SDS011;6473;51.552;6.716;2023-05-17T01:20:18;12.27;;;4.68;;
12816;SDS011;6473;51.552;6.716;2023-05-17T01:22:55;9.25;;;4.25;;
12816;SDS011;6473;51.552;6.716;2023-05-17T01:25:39;11.13;;;4.75;;
12816;SDS011;6473;51.552;6.716;2023-05-17T01:28:18;7.78;;;4.85;;
12816;SDS011;6473;51.552;6.716;2023-05-17T01:30:46;13.60;;;5.05;;
12816;SDS011;6473;51.552;6.716;2023-05-17T01:33:16;6.93;;;4.60;;
12816;SDS011;6473;51.552;6.716;2023-05-17T01:35:44;9.35;;;4.57;;
12816;SDS011;6473;51.552;6.716;2023-05-17T01:38:11;9.15;;;4.72;;
12816;SDS011;6473;51.552;6.716;2023-05-17T01:43:20;8.15;;;4.90;;
12816;SDS011;6473;51.552;6.716;2023-05-17T01:45:53;7.20;;;5.10;;
12816;SDS011;6473;51.552;6.716;2023-05-17T01:48:27;11.68;;;4.97;;
12816;SDS011;6473;51.552;6.716;2023-05-17T01:51:00;11.02;;;5.07;;
12816;SDS011;6473;51.552;6.716;2023-05-17T01:53:29;9.85;;;5.30;;
12816;SDS011;6473;51.552;6.716;2023-05-17T01:56:01;9.20;;;5.28;;
12816;SDS011;6473;51.552;6.716;2023-05-17T01:58:31;7.85;;;5.00;;
12816;SDS011;6473;51.552;6.716;2023-05-17T02:01:10;10.95;;;5.07;;
12816;SDS011;6473;51.552;6.716;2023-05-17T02:03:41;7.60;;;5.25;;
12816;SDS011;6473;51.552;6.716;2023-05-17T02:06:08;9.57;;;5.07;;
12816;SDS011;6473;51.552;6.716;2023-05-17T02:08:45;12.27;;;5.55;;
12816;SDS011;6473;51.552;6.716;2023-05-17T02:11:12;10.27;;;5.90;;
12816;SDS011;6473;51.552;6.716;2023-05-17T02:13:40;11.60;;;5.35;;
12816;SDS011;6473;51.552;6.716;2023-05-17T02:16:07;8.90;;;4.78;;
12816;SDS011;6473;51.552;6.716;2023-05-17T02:18:33;9.25;;;5.20;;
12816;SDS011;6473;51.552;6.716;2023-05-17T02:21:01;14.48;;;6.20;;
12816;SDS011;6473;51.552;6.716;2023-05-17T02:23:28;12.80;;;5.35;;
12816;SDS011;6473;51.552;6.716;2023-05-17T02:25:55;8.13;;;5.18;;
12816;SDS011;6473;51.552;6.716;2023-05-17T02:28:22;10.45;;;5.45;;
12816;SDS011;6473;51.552;6.716;2023-05-17T02:30:57;16.05;;;6.05;;
12816;SDS011;6473;51.552;6.716;2023-05-17T02:33:24;10.88;;;5.50;;
12816;SDS011;6473;51.552;6.716;2023-05-17T02:35:51;11.48;;;5.70;;
12816;SDS011;6473;51.552;6.716;2023-05-17T02:38:18;9.05;;;5.50;;
12816;SDS011;6473;51.552;6.716;2023-05-17T02:40:45;11.80;;;6.05;;
12816;SDS011;6473;51.552;6.716;2023-05-17T02:43:12;13.25;;;5.85;;
12816;SDS011;6473;51.552;6.716;2023-05-17T02:45:39;16.55;;;6.57;;
12816;SDS011;6473;51.552;6.716;2023-05-17T02:48:07;13.68;;;6.28;;
12816;SDS011;6473;51.552;6.716;2023-05-17T02:50:34;10.02;;;6.15;;
12816;SDS011;6473;51.552;6.716;2023-05-17T02:53:00;15.43;;;6.70;;
12816;SDS011;6473;51.552;6.716;2023-05-17T02:55:27;11.18;;;6.05;;
12816;SDS011;6473;51.552;6.716;2023-05-17T02:58:01;12.15;;;6.30;;
12816;SDS011;6473;51.552;6.716;2023-05-17T03:00:28;16.92;;;6.05;;
12816;SDS011;6473;51.552;6.716;2023-05-17T03:02:56;17.58;;;7.38;;
12816;SDS011;6473;51.552;6.716;2023-05-17T03:05:26;12.57;;;6.35;;
12816;SDS011;6473;51.552;6.716;2023-05-17T03:11:43;11.13;;;6.78;;
12816;SDS011;6473;51.552;6.716;2023-05-17T03:14:30;10.35;;;6.43;;
12816;SDS011;6473;51.552;6.716;2023-05-17T03:16:56;11.57;;;6.07;;
12816;SDS011;6473;51.552;6.716;2023-05-17T03:19:29;21.25;;;7.95;;
12816;SDS011;6473;51.552;6.716;2023-05-17T03:21:57;16.27;;;7.25;;
12816;SDS011;6473;51.552;6.716;2023-05-17T03:24:24;12.13;;;7.32;;
12816;SDS011;6473;51.552;6.716;2023-05-17T03:26:51;19.48;;;7.15;;
12816;SDS011;6473;51.552;6.716;2023-05-17T03:29:18;17.75;;;7.53;;
12816;SDS011;6473;51.552;6.716;2023-05-17T03:31:45;14.85;;;6.63;;
12816;SDS011;6473;51.552;6.716;2023-05-17T03:34:13;14.70;;;6.70;;
12816;SDS011;6473;51.552;6.716;2023-05-17T03:36:46;14.57;;;6.93;;
12816;SDS011;6473;51.552;6.716;2023-05-17T03:39:14;11.75;;;6.82;;
12816;SDS011;6473;51.552;6.716;2023-05-17T03:41:41;13.60;;;6.28;;
12816;SDS011;6473;51.552;6.716;2023-05-17T03:44:17;15.50;;;7.22;;
12816;SDS011;6473;51.552;6.716;2023-05-17T03:46:44;17.20;;;6.97;;
12816;SDS011;6473;51.552;6.716;2023-05-17T03:49:12;14.32;;;6.82;;
12816;SDS011;6473;51.552;6.716;2023-05-17T03:51:49;12.15;;;6.13;;
12816;SDS011;6473;51.552;6.716;2023-05-17T03:54:18;14.82;;;7.07;;
12816;SDS011;6473;51.552;6.716;2023-05-17T03:56:45;11.52;;;6.38;;
12816;SDS011;6473;51.552;6.716;2023-05-17T03:59:14;11.57;;;6.15;;
12816;SDS011;6473;51.552;6.716;2023-05-17T04:01:41;17.25;;;6.03;;
12816;SDS011;6473;51.552;6.716;2023-05-17T04:04:10;11.13;;;7.07;;
12816;SDS011;6473;51.552;6.716;2023-05-17T04:06:37;12.15;;;6.45;;
12816;SDS011;6473;51.552;6.716;2023-05-17T04:09:04;17.55;;;7.05;;
12816;SDS011;6473;51.552;6.716;2023-05-17T04:11:34;15.10;;;5.78;;
12816;SDS011;6473;51.552;6.716;2023-05-17T04:14:09;16.10;;;6.75;;
12816;SDS011;6473;51.552;6.716;2023-05-17T04:16:36;11.93;;;6.70;;
12816;SDS011;6473;51.552;6.716;2023-05-17T04:19:03;14.57;;;6.78;;
12816;SDS011;6473;51.552;6.716;2023-05-17T04:21:30;15.95;;;6.55;;
12816;SDS011;6473;51.552;6.716;2023-05-17T04:23:56;13.88;;;6.10;;
12816;SDS011;6473;51.552;6.716;2023-05-17T04:26:24;16.83;;;8.15;;
12816;SDS011;6473;51.552;6.716;2023-05-17T04:28:53;15.85;;;7.15;;
12816;SDS011;6473;51.552;6.716;2023-05-17T04:31:21;14.05;;;6.88;;
12816;SDS011;6473;51.552;6.716;2023-05-17T04:33:48;13.93;;;6.38;;
12816;SDS011;6473;51.552;6.716;2023-05-17T04:36:15;11.38;;;6.05;;
12816;SDS011;6473;51.552;6.716;2023-05-17T04:38:43;11.57;;;6.97;;
12816;SDS011;6473;51.552;6.716;2023-05-17T04:41:13;14.98;;;7.13;;
12816;SDS011;6473;51.552;6.716;2023-05-17T04:43:41;17.73;;;6.70;;
12816;SDS011;6473;51.552;6.716;2023-05-17T04:46:17;15.07;;;6.95;;
12816;SDS011;6473;51.552;6.716;2023-05-17T04:48:44;15.85;;;7.60;;
12816;SDS011;6473;51.552;6.716;2023-05-17T04:51:12;14.93;;;7.00;;
12816;SDS011;6473;51.552;6.716;2023-05-17T04:53:39;16.10;;;6.60;;
12816;SDS011;6473;51.552;6.716;2023-05-17T04:56:11;10.48;;;6.43;;
12816;SDS011;6473;51.552;6.716;2023-05-17T04:58:39;12.73;;;6.63;;
12816;SDS011;6473;51.552;6.716;2023-05-17T05:01:06;14.90;;;6.65;;
12816;SDS011;6473;51.552;6.716;2023-05-17T05:03:35;16.67;;;6.55;;
12816;SDS011;6473;51.552;6.716;2023-05-17T05:06:04;16.33;;;6.20;;
12816;SDS011;6473;51.552;6.716;2023-05-17T05:08:32;13.35;;;6.68;;
12816;SDS011;6473;51.552;6.716;2023-05-17T05:11:03;13.80;;;6.03;;
12816;SDS011;6473;51.552;6.716;2023-05-17T05:13:30;13.55;;;5.60;;
12816;SDS011;6473;51.552;6.716;2023-05-17T05:15:57;14.23;;;5.95;;
12816;SDS011;6473;51.552;6.716;2023-05-17T05:18:25;12.13;;;6.50;;
12816;SDS011;6473;51.552;6.716;2023-05-17T05:20:53;10.20;;;6.38;;
12816;SDS011;6473;51.552;6.716;2023-05-17T05:23:20;13.90;;;5.93;;
12816;SDS011;6473;51.552;6.716;2023-05-17T05:25:48;15.45;;;5.18;;
12816;SDS011;6473;51.552;6.716;2023-05-17T05:28:14;12.20;;;5.57;;
12816;SDS011;6473;51.552;6.716;2023-05-17T05:30:42;11.55;;;5.40;;
12816;SDS011;6473;51.552;6.716;2023-05-17T05:33:11;10.68;;;4.82;;
12816;SDS011;6473;51.552;6.716;2023-05-17T05:35:38;15.30;;;5.25;;
12816;SDS011;6473;51.552;6.716;2023-05-17T05:38:07;12.48;;;5.10;;
12816;SDS011;6473;51.552;6.716;2023-05-17T05:40:36;12.25;;;4.32;;
12816;SDS011;6473;51.552;6.716;2023-05-17T05:43:03;10.93;;;4.65;;
12816;SDS011;6473;51.552;6.716;2023-05-17T05:45:30;10.07;;;4.47;;
12816;SDS011;6473;51.552;6.716;2023-05-17T05:48:00;9.48;;;4.18;;
12816;SDS011;6473;51.552;6.716;2023-05-17T05:50:28;9.32;;;4.60;;
12816;SDS011;6473;51.552;6.716;2023-05-17T05:53:02;12.10;;;4.90;;
12816;SDS011;6473;51.552;6.716;2023-05-17T05:55:31;8.43;;;3.72;;
12816;SDS011;6473;51.552;6.716;2023-05-17T05:57:58;10.23;;;3.65;;
12816;SDS011;6473;51.552;6.716;2023-05-17T06:00:25;9.77;;;3.05;;
12816;SDS011;6473;51.552;6.716;2023-05-17T06:02:52;11.10;;;3.28;;
12816;SDS011;6473;51.552;6.716;2023-05-17T06:05:21;7.60;;;3.75;;
12816;SDS011;6473;51.552;6.716;2023-05-17T06:07:48;5.15;;;2.45;;
12816;SDS011;6473;51.552;6.716;2023-05-17T06:10:15;7.57;;;2.20;;
12816;SDS011;6473;51.552;6.716;2023-05-17T06:12:43;8.30;;;2.60;;
12816;SDS011;6473;51.552;6.716;2023-05-17T06:15:10;7.70;;;3.00;;
12816;SDS011;6473;51.552;6.716;2023-05-17T06:17:37;5.25;;;2.08;;
12816;SDS011;6473;51.552;6.716;2023-05-17T06:20:04;11.85;;;2.60;;
12816;SDS011;6473;51.552;6.716;2023-05-17T06:22:32;8.95;;;2.80;;
12816;SDS011;6473;51.552;6.716;2023-05-17T06:24:59;11.60;;;3.28;;
12816;SDS011;6473;51.552;6.716;2023-05-17T06:27:26;6.88;;;2.78;;
12816;SDS011;6473;51.552;6.716;2023-05-17T06:29:54;11.05;;;4.38;;
12816;SDS011;6473;51.552;6.716;2023-05-17T06:32:21;9.15;;;2.65;;
12816;SDS011;6473;51.552;6.716;2023-05-17T06:34:47;5.03;;;2.17;;
12816;SDS011;6473;51.552;6.716;2023-05-17T06:37:14;8.70;;;2.60;;
12816;SDS011;6473;51.552;6.716;2023-05-17T06:39:41;8.30;;;2.33;;
12816;SDS011;6473;51.552;6.716;2023-05-17T06:42:08;6.30;;;2.53;;
12816;SDS011;6473;51.552;6.716;2023-05-17T06:44:35;7.93;;;2.20;;
12816;SDS011;6473;51.552;6.716;2023-05-17T06:47:03;6.43;;;2.40;;
12816;SDS011;6473;51.552;6.716;2023-05-17T06:49:30;10.77;;;2.78;;
12816;SDS011;6473;51.552;6.716;2023-05-17T06:51:57;7.22;;;2.90;;
12816;SDS011;6473;51.552;6.716;2023-05-17T06:54:27;9.05;;;2.80;;
12816;SDS011;6473;51.552;6.716;2023-05-17T06:56:54;6.68;;;2.22;;
12816;SDS011;6473;51.552;6.716;2023-05-17T06:59:24;8.52;;;2.10;;
12816;SDS011;6473;51.552;6.716;2023-05-17T07:01:51;6.80;;;2.75;;
12816;SDS011;6473;51.552;6.716;2023-05-17T07:04:19;8.02;;;2.47;;
12816;SDS011;6473;51.552;6.716;2023-05-17T07:06:46;9.00;;;2.40;;
12816;SDS011;6473;51.552;6.716;2023-05-17T07:12:40;7.70;;;2.47;;
12816;SDS011;6473;51.552;6.716;2023-05-17T07:15:07;15.25;;;3.30;;
12816;SDS011;6473;51.552;6.716;2023-05-17T07:17:35;6.60;;;2.38;;
12816;SDS011;6473;51.552;6.716;2023-05-17T07:20:04;6.40;;;2.50;;
12816;SDS011;6473;51.552;6.716;2023-05-17T07:22:31;8.20;;;2.33;;
12816;SDS011;6473;51.552;6.716;2023-05-17T07:25:00;10.07;;;2.20;;
12816;SDS011;6473;51.552;6.716;2023-05-17T07:27:27;6.13;;;1.92;;
12816;SDS011;6473;51.552;6.716;2023-05-17T07:29:59;9.15;;;2.53;;
12816;SDS011;6473;51.552;6.716;2023-05-17T07:32:27;8.38;;;2.42;;
12816;SDS011;6473;51.552;6.716;2023-05-17T07:34:53;5.82;;;1.92;;
12816;SDS011;6473;51.552;6.716;2023-05-17T07:58:44;7.55;;;2.10;;
12816;SDS011;6473;51.552;6.716;2023-05-17T08:01:11;4.72;;;2.05;;
12816;SDS011;6473;51.552;6.716;2023-05-17T08:03:38;6.53;;;2.42;;
12816;SDS011;6473;51.552;6.716;2023-05-17T08:06:11;6.35;;;2.00;;
12816;SDS011;6473;51.552;6.716;2023-05-17T08:08:38;7.00;;;1.77;;
12816;SDS011;6473;51.552;6.716;2023-05-17T08:11:05;7.25;;;2.00;;
12816;SDS011;6473;51.552;6.716;2023-05-17T08:13:32;3.60;;;1.70;;
12816;SDS011;6473;51.552;6.716;2023-05-17T08:16:01;9.00;;;2.72;;
12816;SDS011;6473;51.552;6.716;2023-05-17T08:18:32;8.77;;;2.33;;
12816;SDS011;6473;51.552;6.716;2023-05-17T08:20:59;8.43;;;2.58;;
12816;SDS011;6473;51.552;6.716;2023-05-17T08:23:26;7.07;;;2.28;;
12816;SDS011;6473;51.552;6.716;2023-05-17T08:25:53;11.20;;;2.38;;
12816;SDS011;6473;51.552;6.716;2023-05-17T08:28:20;4.25;;;2.00;;
12816;SDS011;6473;51.552;6.716;2023-05-17T08:30:47;5.63;;;2.00;;
12816;SDS011;6473;51.552;6.716;2023-05-17T08:33:15;8.57;;;2.50;;
12816;SDS011;6473;51.552;6.716;2023-05-17T08:35:45;5.88;;;2.13;;
12816;SDS011;6473;51.552;6.716;2023-05-17T08:38:13;4.80;;;2.05;;
12816;SDS011;6473;51.552;6.716;2023-05-17T08:40:40;9.20;;;2.47;;
12816;SDS011;6473;51.552;6.716;2023-05-17T08:43:07;6.32;;;2.35;;
12816;SDS011;6473;51.552;6.716;2023-05-17T08:45:37;10.02;;;2.47;;
12816;SDS011;6473;51.552;6.716;2023-05-17T08:48:04;4.07;;;2.15;;
12816;SDS011;6473;51.552;6.716;2023-05-17T08:50:33;4.75;;;1.92;;
12816;SDS011;6473;51.552;6.716;2023-05-17T08:53:00;6.18;;;1.75;;
12816;SDS011;6473;51.552;6.716;2023-05-17T08:55:27;5.60;;;1.60;;
12816;SDS011;6473;51.552;6.716;2023-05-17T08:57:57;7.32;;;2.15;;
12816;SDS011;6473;51.552;6.716;2023-05-17T09:00:24;3.78;;;1.60;;
12816;SDS011;6473;51.552;6.716;2023-05-17T09:02:52;5.03;;;2.25;;
12816;SDS011;6473;51.552;6.716;2023-05-17T09:05:19;5.47;;;2.00;;
12816;SDS011;6473;51.552;6.716;2023-05-17T09:07:48;4.00;;;1.85;;
12816;SDS011;6473;51.552;6.716;2023-05-17T09:10:15;9.40;;;2.03;;
12816;SDS011;6473;51.552;6.716;2023-05-17T09:12:42;6.72;;;2.00;;
12816;SDS011;6473;51.552;6.716;2023-05-17T09:15:13;4.38;;;1.73;;
12816;SDS011;6473;51.552;6.716;2023-05-17T09:17:42;5.82;;;1.70;;
12816;SDS011;6473;51.552;6.716;2023-05-17T09:20:20;4.38;;;1.48;;
12816;SDS011;6473;51.552;6.716;2023-05-17T09:22:51;6.65;;;1.77;;
12816;SDS011;6473;51.552;6.716;2023-05-17T09:25:18;3.13;;;1.73;;
12816;SDS011;6473;51.552;6.716;2023-05-17T09:27:46;4.55;;;1.65;;
12816;SDS011;6473;51.552;6.716;2023-05-17T09:30:12;3.80;;;1.67;;
12816;SDS011;6473;51.552;6.716;2023-05-17T09:32:43;3.97;;;1.67;;
12816;SDS011;6473;51.552;6.716;2023-05-17T09:35:10;6.22;;;2.20;;
12816;SDS011;6473;51.552;6.716;2023-05-17T09:37:37;4.32;;;1.75;;
12816;SDS011;6473;51.552;6.716;2023-05-17T09:40:07;4.13;;;1.70;;
12816;SDS011;6473;51.552;6.716;2023-05-17T09:42:36;5.43;;;1.85;;
12816;SDS011;6473;51.552;6.716;2023-05-17T09:45:03;6.15;;;1.70;;
12816;SDS011;6473;51.552;6.716;2023-05-17T09:47:31;3.90;;;2.08;;
12816;SDS011;6473;51.552;6.716;2023-05-17T09:49:59;4.95;;;1.90;;
12816;SDS011;6473;51.552;6.716;2023-05-17T09:52:27;6.68;;;1.55;;
12816;SDS011;6473;51.552;6.716;2023-05-17T09:54:56;5.18;;;1.83;;
12816;SDS011;6473;51.552;6.716;2023-05-17T09:57:25;4.85;;;2.00;;
12816;SDS011;6473;51.552;6.716;2023-05-17T09:59:55;4.88;;;1.88;;
12816;SDS011;6473;51.552;6.716;2023-05-17T10:02:25;4.15;;;1.60;;
12816;SDS011;6473;51.552;6.716;2023-05-17T10:04:54;3.80;;;1.90;;
12816;SDS011;6473;51.552;6.716;2023-05-17T10:07:23;4.05;;;1.70;;
12816;SDS011;6473;51.552;6.716;2023-05-17T10:09:51;4.50;;;1.80;;
12816;SDS011;6473;51.552;6.716;2023-05-17T10:12:20;3.72;;;1.80;;
12816;SDS011;6473;51.552;6.716;2023-05-17T10:14:50;6.43;;;1.80;;
12816;SDS011;6473;51.552;6.716;2023-05-17T10:17:20;8.43;;;2.00;;
12816;SDS011;6473;51.552;6.716;2023-05-17T10:19:47;3.97;;;1.95;;
12816;SDS011;6473;51.552;6.716;2023-05-17T10:22:15;5.22;;;1.70;;
12816;SDS011;6473;51.552;6.716;2023-05-17T10:24:43;5.82;;;1.67;;
12816;SDS011;6473;51.552;6.716;2023-05-17T10:27:11;2.65;;;1.45;;
12816;SDS011;6473;51.552;6.716;2023-05-17T10:29:39;4.22;;;1.60;;
12816;SDS011;6473;51.552;6.716;2023-05-17T10:32:09;3.88;;;1.50;;
12816;SDS011;6473;51.552;6.716;2023-05-17T10:34:41;3.03;;;1.48;;
12816;SDS011;6473;51.552;6.716;2023-05-17T10:37:08;3.20;;;1.38;;
12816;SDS011;6473;51.552;6.716;2023-05-17T10:39:39;4.90;;;1.58;;
12816;SDS011;6473;51.552;6.716;2023-05-17T10:42:11;3.13;;;1.75;;
12816;SDS011;6473;51.552;6.716;2023-05-17T10:44:41;5.47;;;1.63;;
12816;SDS011;6473;51.552;6.716;2023-05-17T10:47:10;5.25;;;1.98;;
12816;SDS011;6473;51.552;6.716;2023-05-17T10:49:42;4.50;;;1.60;;
12816;SDS011;6473;51.552;6.716;2023-05-17T10:52:12;4.75;;;1.50;;
12816;SDS011;6473;51.552;6.716;2023-05-17T10:54:41;3.80;;;1.40;;
12816;SDS011;6473;51.552;6.716;2023-05-17T10:57:17;3.03;;;1.65;;
12816;SDS011;6473;51.552;6.716;2023-05-17T10:59:55;2.55;;;1.48;;
12816;SDS011;6473;51.552;6.716;2023-05-17T11:02:25;3.38;;;1.52;;
12816;SDS011;6473;51.552;6.716;2023-05-17T11:04:54;3.90;;;1.67;;
12816;SDS011;6473;51.552;6.716;2023-05-17T11:07:22;2.83;;;1.60;;
12816;SDS011;6473;51.552;6.716;2023-05-17T11:09:54;4.00;;;1.77;;
12816;SDS011;6473;51.552;6.716;2023-05-17T11:12:30;3.90;;;1.80;;
12816;SDS011;6473;51.552;6.716;2023-05-17T11:15:02;5.40;;;1.80;;
12816;SDS011;6473;51.552;6.716;2023-05-17T11:17:36;6.18;;;2.30;;
12816;SDS011;6473;51.552;6.716;2023-05-17T11:20:31;3.45;;;1.80;;
12816;SDS011;6473;51.552;6.716;2023-05-17T11:22:59;3.28;;;1.88;;
12816;SDS011;6473;51.552;6.716;2023-05-17T11:25:29;3.28;;;1.85;;
12816;SDS011;6473;51.552;6.716;2023-05-17T11:27:59;6.40;;;1.80;;
12816;SDS011;6473;51.552;6.716;2023-05-17T11:30:31;3.45;;;2.08;;
12816;SDS011;6473;51.552;6.716;2023-05-17T11:33:00;2.85;;;1.95;;
12816;SDS011;6473;51.552;6.716;2023-05-17T11:35:30;5.05;;;2.20;;
12816;SDS011;6473;51.552;6.716;2023-05-17T11:38:11;2.70;;;2.00;;
12816;SDS011;6473;51.552;6.716;2023-05-17T11:40:39;3.67;;;2.05;;
12816;SDS011;6473;51.552;6.716;2023-05-17T11:43:10;2.53;;;1.77;;
12816;SDS011;6473;51.552;6.716;2023-05-17T11:45:40;6.55;;;2.15;;
12816;SDS011;6473;51.552;6.716;2023-05-17T11:48:09;5.60;;;1.95;;
12816;SDS011;6473;51.552;6.716;2023-05-17T11:50:37;3.55;;;1.92;;
12816;SDS011;6473;51.552;6.716;2023-05-17T11:53:05;4.93;;;1.88;;
12816;SDS011;6473;51.552;6.716;2023-05-17T11:55:33;3.28;;;2.00;;
12816;SDS011;6473;51.552;6.716;2023-05-17T11:58:04;3.72;;;1.65;;
12816;SDS011;6473;51.552;6.716;2023-05-17T12:00:34;4.60;;;1.80;;
12816;SDS011;6473;51.552;6.716;2023-05-17T12:03:17;7.78;;;2.50;;
12816;SDS011;6473;51.552;6.716;2023-05-17T12:05:49;5.55;;;1.90;;
12816;SDS011;6473;51.552;6.716;2023-05-17T12:08:26;4.35;;;2.10;;
12816;SDS011;6473;51.552;6.716;2023-05-17T12:10:53;7.63;;;2.10;;
12816;SDS011;6473;51.552;6.716;2023-05-17T12:13:20;5.97;;;2.22;;
12816;SDS011;6473;51.552;6.716;2023-05-17T12:15:50;5.10;;;1.70;;
12816;SDS011;6473;51.552;6.716;2023-05-17T12:18:23;6.15;;;2.05;;
12816;SDS011;6473;51.552;6.716;2023-05-17T12:21:01;6.20;;;2.15;;
12816;SDS011;6473;51.552;6.716;2023-05-17T12:23:28;5.97;;;2.30;;
12816;SDS011;6473;51.552;6.716;2023-05-17T12:26:03;4.65;;;1.83;;
12816;SDS011;6473;51.552;6.716;2023-05-17T12:28:30;2.72;;;1.95;;
12816;SDS011;6473;51.552;6.716;2023-05-17T12:30:57;4.20;;;2.38;;
12816;SDS011;6473;51.552;6.716;2023-05-17T12:33:29;7.15;;;2.00;;
12816;SDS011;6473;51.552;6.716;2023-05-17T12:35:57;2.80;;;1.88;;
12816;SDS011;6473;51.552;6.716;2023-05-17T12:38:25;3.88;;;1.70;;
12816;SDS011;6473;51.552;6.716;2023-05-17T12:40:56;3.25;;;1.92;;
12816;SDS011;6473;51.552;6.716;2023-05-17T12:43:23;5.80;;;1.95;;
12816;SDS011;6473;51.552;6.716;2023-05-17T12:45:51;5.35;;;2.40;;
12816;SDS011;6473;51.552;6.716;2023-05-17T12:48:18;7.25;;;2.05;;
12816;SDS011;6473;51.552;6.716;2023-05-17T12:50:51;4.60;;;1.80;;
12816;SDS011;6473;51.552;6.716;2023-05-17T12:53:20;7.45;;;2.20;;
12816;SDS011;6473;51.552;6.716;2023-05-17T12:55:47;4.07;;;1.80;;
12816;SDS011;6473;51.552;6.716;2023-05-17T12:58:14;3.20;;;1.98;;
12816;SDS011;6473;51.552;6.716;2023-05-17T13:00:54;3.90;;;1.80;;
12816;SDS011;6473;51.552;6.716;2023-05-17T13:03:22;4.20;;;1.90;;
12816;SDS011;6473;51.552;6.716;2023-05-17T13:05:57;3.15;;;1.58;;
12816;SDS011;6473;51.552;6.716;2023-05-17T13:08:25;5.55;;;1.98;;
12816;SDS011;6473;51.552;6.716;2023-05-17T13:10:52;4.82;;;2.00;;
12816;SDS011;6473;51.552;6.716;2023-05-17T13:13:19;4.43;;;1.98;;
12816;SDS011;6473;51.552;6.716;2023-05-17T13:15:46;4.25;;;1.70;;
12816;SDS011;6473;51.552;6.716;2023-05-17T13:18:13;4.32;;;1.80;;
12816;SDS011;6473;51.552;6.716;2023-05-17T13:20:42;8.07;;;2.45;;
12816;SDS011;6473;51.552;6.716;2023-05-17T13:23:10;9.00;;;2.72;;
12816;SDS011;6473;51.552;6.716;2023-05-17T13:25:37;6.38;;;2.00;;
12816;SDS011;6473;51.552;6.716;2023-05-17T13:28:04;3.63;;;1.88;;
12816;SDS011;6473;51.552;6.716;2023-05-17T13:30:30;3.90;;;1.60;;
12816;SDS011;6473;51.552;6.716;2023-05-17T13:32:57;6.78;;;2.15;;
12816;SDS011;6473;51.552;6.716;2023-05-17T13:35:24;4.05;;;1.95;;
12816;SDS011;6473;51.552;6.716;2023-05-17T13:37:51;5.57;;;1.88;;
12816;SDS011;6473;51.552;6.716;2023-05-17T13:40:19;6.72;;;2.00;;
12816;SDS011;6473;51.552;6.716;2023-05-17T13:42:46;3.92;;;2.08;;
12816;SDS011;6473;51.552;6.716;2023-05-17T13:45:14;8.05;;;2.90;;
12816;SDS011;6473;51.552;6.716;2023-05-17T13:47:43;4.47;;;1.80;;
12816;SDS011;6473;51.552;6.716;2023-05-17T13:50:10;4.13;;;1.80;;
12816;SDS011;6473;51.552;6.716;2023-05-17T13:52:41;5.07;;;2.15;;
12816;SDS011;6473;51.552;6.716;2023-05-17T13:55:09;5.53;;;1.92;;
12816;SDS011;6473;51.552;6.716;2023-05-17T13:57:37;4.60;;;2.03;;
12816;SDS011;6473;51.552;6.716;2023-05-17T14:00:05;3.97;;;1.70;;
12816;SDS011;6473;51.552;6.716;2023-05-17T14:02:33;6.10;;;1.85;;
12816;SDS011;6473;51.552;6.716;2023-05-17T14:04:59;5.20;;;1.80;;
12816;SDS011;6473;51.552;6.716;2023-05-17T14:07:27;6.53;;;2.03;;
12816;SDS011;6473;51.552;6.716;2023-05-17T14:09:54;4.68;;;1.70;;
12816;SDS011;6473;51.552;6.716;2023-05-17T14:12:22;5.15;;;2.00;;
12816;SDS011;6473;51.552;6.716;2023-05-17T14:14:51;3.88;;;1.77;;
12816;SDS011;6473;51.552;6.716;2023-05-17T14:17:18;3.45;;;1.95;;
12816;SDS011;6473;51.552;6.716;2023-05-17T14:19:45;6.18;;;2.20;;
12816;SDS011;6473;51.552;6.716;2023-05-17T14:22:12;4.63;;;1.90;;
12816;SDS011;6473;51.552;6.716;2023-05-17T14:24:39;7.28;;;2.10;;
12816;SDS011;6473;51.552;6.716;2023-05-17T14:27:06;5.95;;;2.33;;
12816;SDS011;6473;51.552;6.716;2023-05-17T14:29:33;4.93;;;2.05;;
12816;SDS011;6473;51.552;6.716;2023-05-17T14:32:01;3.70;;;2.10;;
12816;SDS011;6473;51.552;6.716;2023-05-17T14:34:29;4.30;;;2.00;;
12816;SDS011;6473;51.552;6.716;2023-05-17T14:36:55;5.80;;;2.28;;
12816;SDS011;6473;51.552;6.716;2023-05-17T14:39:22;4.63;;;2.20;;
12816;SDS011;6473;51.552;6.716;2023-05-17T14:41:49;3.40;;;1.90;;
12816;SDS011;6473;51.552;6.716;2023-05-17T14:44:16;5.03;;;2.08;;
12816;SDS011;6473;51.552;6.716;2023-05-17T14:46:43;3.38;;;2.03;;
12816;SDS011;6473;51.552;6.716;2023-05-17T14:49:11;2.80;;;1.67;;
12816;SDS011;6473;51.552;6.716;2023-05-17T14:51:38;7.65;;;2.17;;
12816;SDS011;6473;51.552;6.716;2023-05-17T14:54:05;5.85;;;1.90;;
12816;SDS011;6473;51.552;6.716;2023-05-17T14:56:32;8.60;;;2.30;;
12816;SDS011;6473;51.552;6.716;2023-05-17T14:58:59;4.60;;;2.15;;
12816;SDS011;6473;51.552;6.716;2023-05-17T15:01:27;4.95;;;2.03;;
12816;SDS011;6473;51.552;6.716;2023-05-17T15:03:54;3.60;;;2.08;;
12816;SDS011;6473;51.552;6.716;2023-05-17T15:06:23;4.60;;;1.92;;
12816;SDS011;6473;51.552;6.716;2023-05-17T15:08:50;4.70;;;2.20;;
12816;SDS011;6473;51.552;6.716;2023-05-17T15:11:17;2.85;;;2.00;;
12816;SDS011;6473;51.552;6.716;2023-05-17T15:13:44;6.05;;;2.30;;
12816;SDS011;6473;51.552;6.716;2023-05-17T15:16:11;10.43;;;2.80;;
12816;SDS011;6473;51.552;6.716;2023-05-17T15:18:38;8.25;;;2.47;;
12816;SDS011;6473;51.552;6.716;2023-05-17T15:21:05;4.70;;;2.35;;
12816;SDS011;6473;51.552;6.716;2023-05-17T15:23:34;5.15;;;2.25;;
12816;SDS011;6473;51.552;6.716;2023-05-17T15:26:01;5.72;;;2.42;;
12816;SDS011;6473;51.552;6.716;2023-05-17T15:28:28;6.47;;;2.30;;
12816;SDS011;6473;51.552;6.716;2023-05-17T15:30:59;7.90;;;2.20;;
12816;SDS011;6473;51.552;6.716;2023-05-17T15:33:27;3.95;;;2.20;;
12816;SDS011;6473;51.552;6.716;2023-05-17T15:35:54;7.30;;;1.77;;
12816;SDS011;6473;51.552;6.716;2023-05-17T15:38:21;3.13;;;1.92;;